Air Resources Laboratory banner image
Air Resources Laboratory web site National Oceanic and Atmospheric Administration (NOAA)

ia metar


KADU 231955Z AUTO 18009KT 10SM SCT065 30/18 A3007 RMK AO2=
KAIO 231955Z AUTO 19011G17KT 10SM FEW060 31/17 A3004 RMK AO2=
KALO 231954Z 16009KT 10SM CLR 28/19 A3010 RMK AO2 SLP186 T02780189=
KAMW 231953Z AUTO 16013KT 10SM CLR 29/19 A3007 RMK AO2 SLP173 T02890194=
KAWG 231955Z AUTO 13008KT 10SM FEW045 29/18 A3013 RMK AO2=
KAXA 231955Z AUTO 13010G15KT 10SM FEW029 27/21 A3008 RMK AO2=
KBNW 231955Z AUTO 15011G18KT 10SM FEW050 30/17 A3006 RMK AO2=
KBRL 231953Z AUTO VRB03KT 10SM CLR 29/18 A3012 RMK AO2 SLP196 T02890178=
KCAV 231955Z AUTO 16013KT 10SM CLR 28/21 A3008 RMK AO2 PWINO=
KCBF 231955Z AUTO 18011G19KT 10SM CLR 31/19 A3002 RMK AO2=
KCID 231952Z 15011KT 10SM FEW041 28/19 A3011 RMK AO2 SLP190 T02780189=
KCNC 231955Z AUTO 13010KT 10SM FEW047 SCT055 29/19 A3009 RMK AO2=
KCSQ 231955Z AUTO 15012KT 10SM FEW050 SCT055 SCT070 30/18 A3009 RMK AO2=
KCWI 231956Z AUTO 15006KT 10SM 27/17 A3015 RMK AO2 SLPNO T02720167 $=
KDBQ 231953Z 16010KT 10SM CLR 26/16 A3016 RMK AO2 SLP209 T02560161=
KDEH 231955Z AUTO 16008G14KT 10SM BKN027 25/19 A3015 RMK AO2=
KDNS 231955Z AUTO 19011G18KT 160V220 10SM CLR 31/17 A3004 RMK AO2=
KDSM 231954Z 14009KT 10SM FEW043 SCT250 29/19 A3007 RMK AO2 SLP175 T02940189=
KDVN 231952Z AUTO 10003KT 10SM CLR 27/16 A3015 RMK AO2 SLP204 T02670161=
KEBS 231955Z AUTO 16009G19KT 10SM CLR 30/19 A3005 RMK AO2=
KEOK 231955Z AUTO 12008KT 10SM CLR 29/18 A3011 RMK AO2=
KEST 231952Z AUTO 17013KT 10SM CLR 27/21 A3006 RMK AO2 SLP170 T02670211=
KFFL 231955Z AUTO 12007KT 10SM CLR 28/17 A3011 RMK AO2 PWINO=
KFOD 231956Z AUTO 17007G15KT 10SM BKN055 BKN070 29/19 A3006 RMK AO2 SLP196
 T02890194=
KFSW 231955Z AUTO 13003KT 10SM CLR 29/18 A3013 RMK AO2=
KHNR 231955Z AUTO 20017KT 10SM FEW060 FEW075 32/16 A3006 RMK AO2=
KICL 231955Z AUTO 16007G15KT 130V190 10SM SCT065 SCT075 32/17 A3005 RMK AO2=
KIKV 231955Z AUTO 14012KT 110V180 10SM FEW046 FEW055 29/20 A3008 RMK AO2=
KIOW 231952Z AUTO 18008KT 130V200 10SM CLR 28/18 A3012 RMK AO2 SLP197 T02830183=
KLRJ 231955Z AUTO 17018G27KT 10SM CLR 31/16 A2998 RMK AO2=
KLWD 231953Z AUTO 17008KT 10SM CLR 29/19 A3008 RMK AO2 SLP178 T02940194=
KMCW 231953Z AUTO 19011KT 10SM CLR 27/21 A3011 RMK AO2 SLP184 T02720211=
KMIW 231953Z AUTO 16012KT 10SM CLR 28/19 A3009 RMK AO2 SLP182 T02830189=
KMUT 231955Z AUTO 12009KT 10SM SCT046 28/18 A3012 RMK AO2 PNO=
KMXO 231955Z AUTO 14007KT 10SM SCT039 27/18 A3013 RMK AO2=
KOLZ 231955Z AUTO 15008G13KT 10SM BKN042 BKN050 27/18 A3014 RMK AO2=
KORC 231955Z AUTO 18013G20KT 10SM SCT060 31/17 A3000 RMK AO2=
KOTM 231953Z AUTO 12009KT 10SM FEW049 29/18 A3010 RMK AO2 SLP187 T02890178=
KOXV 231955Z AUTO 13010KT 10SM BKN048 SCT055 29/18 A3008 RMK AO2=
KRDK 231955Z AUTO 15010G17KT 10SM CLR 32/17 A3003 RMK AO2=
KSDA 232015Z AUTO 18013G20KT 10SM FEW070 FEW085 33/15 A3001 RMK AO2=
KSHL 231955Z AUTO 15016G24KT 10SM FEW055 31/18 A3000 RMK AO2=
KSLB 231955Z AUTO 20018KT 10SM CLR 32/15 A3003 RMK AO2=
KSPW 231953Z AUTO 15015G22KT 10SM FEW049 30/19 A3003 RMK AO2 SLP160 T03000194=
KSUX 231952Z 15017G24KT 10SM SCT047 31/19 A2998 RMK AO2 SLP146 T03060189=
KTNU 231955Z AUTO 18012G17KT 10SM CLR 29/18 A3009 RMK AO2=